createdAt,value
2022-08-19T00:01:07.765Z,12.20
2022-08-19T00:06:10.292Z,12.73
2022-08-19T00:11:12.135Z,10.77
2022-08-19T00:16:26.108Z,11.98
2022-08-19T00:21:28.414Z,13.52
2022-08-19T00:26:29.894Z,12.52
2022-08-19T00:31:32.328Z,10.45
2022-08-19T00:36:34.244Z,11.40
2022-08-19T00:41:36.507Z,13.05
2022-08-19T00:46:41.011Z,10.77
2022-08-19T00:51:45.574Z,10.65
2022-08-19T00:56:47.220Z,8.70
2022-08-19T01:01:49.034Z,11.75
2022-08-19T01:06:50.583Z,9.48
2022-08-19T01:11:52.745Z,10.20
2022-08-19T01:16:56.471Z,11.43
2022-08-19T01:22:14.039Z,11.73
2022-08-19T01:27:16.347Z,13.27
2022-08-19T01:32:32.099Z,13.65
2022-08-19T01:37:57.861Z,13.90
2022-08-19T01:43:00.783Z,15.48
2022-08-19T01:48:03.639Z,13.57
2022-08-19T01:53:08.064Z,11.57
2022-08-19T01:58:22.173Z,12.90
2022-08-19T02:03:24.375Z,11.38
2022-08-19T02:08:27.939Z,11.80
2022-08-19T02:13:29.774Z,19.55
2022-08-19T02:18:31.277Z,12.00
2022-08-19T02:23:32.766Z,13.13
2022-08-19T02:28:34.553Z,16.25
2022-08-19T02:33:36.075Z,20.63
2022-08-19T02:38:38.586Z,11.57
2022-08-19T02:43:44.400Z,12.90
2022-08-19T02:49:06.161Z,25.67
2022-08-19T02:54:09.197Z,11.38
2022-08-19T02:59:12.465Z,11.55
2022-08-19T03:04:16.698Z,26.38
2022-08-19T03:09:20.622Z,18.15
2022-08-19T03:14:22.197Z,16.45
2022-08-19T03:19:23.782Z,19.70
2022-08-19T03:24:25.647Z,8.90
2022-08-19T03:29:30.467Z,14.70
2022-08-19T03:34:35.069Z,11.38
2022-08-19T03:39:38.934Z,13.57
2022-08-19T03:44:40.805Z,21.45
2022-08-19T03:49:42.401Z,11.80
2022-08-19T03:54:43.937Z,11.95
2022-08-19T03:59:45.632Z,14.23
2022-08-19T04:04:47.336Z,14.48
2022-08-19T04:09:50.096Z,28.85
2022-08-19T04:14:51.622Z,15.65
2022-08-19T04:19:53.130Z,18.52
2022-08-19T04:24:54.623Z,19.83
2022-08-19T04:29:56.120Z,14.05
2022-08-19T04:35:02.717Z,13.77
2022-08-19T04:40:36.434Z,17.27
2022-08-19T04:45:43.485Z,20.17
2022-08-19T04:50:45.749Z,16.58
2022-08-19T04:55:47.258Z,17.08
2022-08-19T05:00:48.835Z,18.15
2022-08-19T05:05:50.449Z,19.58
2022-08-19T05:10:52.608Z,16.27
2022-08-19T05:15:56.500Z,15.23
2022-08-19T05:21:16.457Z,16.05
2022-08-19T05:26:17.957Z,15.65
2022-08-19T05:31:19.857Z,17.00
2022-08-19T05:36:21.377Z,18.65
2022-08-19T05:41:30.212Z,13.50
2022-08-19T05:46:31.727Z,12.15
2022-08-19T05:51:35.643Z,13.43
2022-08-19T05:56:40.172Z,13.43
2022-08-19T06:01:43.560Z,12.75
2022-08-19T06:06:47.059Z,21.15
2022-08-19T06:11:52.880Z,13.52
2022-08-19T06:16:56.007Z,17.02
2022-08-19T06:21:59.299Z,14.93
2022-08-19T06:27:03.718Z,11.13
2022-08-19T06:32:05.379Z,12.80
2022-08-19T06:37:06.881Z,13.93
2022-08-19T06:42:12.184Z,9.40
2022-08-19T06:47:23.606Z,8.77
2022-08-19T06:52:26.825Z,8.45
2022-08-19T06:57:32.310Z,8.45
2022-08-19T07:02:33.800Z,9.30
2022-08-19T07:07:35.585Z,7.65
2022-08-19T07:12:38.143Z,5.10
2022-08-19T07:17:40.264Z,5.10
2022-08-19T07:22:43.562Z,4.82
2022-08-19T07:27:46.210Z,4.22
2022-08-19T07:32:48.012Z,2.53
2022-08-19T07:37:53.990Z,6.13
2022-08-19T07:42:55.842Z,4.00
2022-08-19T07:47:57.486Z,3.38
2022-08-19T07:52:59.197Z,5.50
2022-08-19T07:58:00.721Z,2.92
2022-08-19T08:03:04.912Z,3.13
2022-08-19T08:08:27.534Z,4.38
2022-08-19T08:13:29.475Z,4.15
2022-08-19T08:18:32.129Z,3.63
2022-08-19T08:23:33.631Z,5.13
2022-08-19T08:28:35.131Z,4.72
2022-08-19T08:33:36.634Z,4.90
2022-08-19T08:38:41.725Z,6.57
2022-08-19T08:43:52.173Z,3.33
2022-08-19T08:49:17.657Z,3.33
2022-08-19T08:54:25.300Z,7.15
2022-08-19T08:59:35.423Z,4.37
2022-08-19T09:04:38.409Z,3.72
2022-08-19T09:09:44.561Z,4.68
2022-08-19T09:14:51.827Z,4.38
2022-08-19T09:19:58.024Z,6.50
2022-08-19T09:25:00.169Z,4.15
2022-08-19T09:30:01.855Z,4.35
2022-08-19T09:35:03.670Z,3.17
2022-08-19T09:40:12.259Z,5.70
2022-08-19T09:45:17.956Z,8.10
2022-08-19T09:50:19.604Z,8.25
2022-08-19T09:55:21.115Z,7.20
2022-08-19T10:00:22.739Z,16.77
2022-08-19T10:05:42.801Z,5.50
2022-08-19T10:10:46.276Z,3.60
2022-08-19T10:15:49.604Z,3.22
2022-08-19T10:20:53.196Z,3.95
2022-08-19T10:25:54.713Z,4.97
2022-08-19T10:30:56.202Z,2.70
2022-08-19T10:36:02.473Z,1.63
2022-08-19T10:41:20.679Z,4.78
2022-08-19T10:46:25.063Z,2.67
2022-08-19T10:51:48.005Z,3.58
2022-08-19T10:56:53.027Z,2.97
2022-08-19T11:01:59.563Z,4.10
2022-08-19T11:07:01.048Z,5.95
2022-08-19T11:12:04.794Z,3.65
2022-08-19T11:17:07.464Z,2.78
2022-08-19T11:22:11.695Z,3.70
2022-08-19T11:27:17.688Z,2.10
2022-08-19T11:32:19.277Z,2.25
2022-08-19T11:37:24.228Z,1.65
2022-08-19T11:42:44.275Z,3.95
2022-08-19T11:47:47.078Z,2.70
2022-08-19T11:52:50.537Z,1.52
2022-08-19T11:57:52.071Z,4.93
2022-08-19T12:02:53.560Z,3.38
2022-08-19T12:07:55.489Z,3.33
2022-08-19T12:12:58.647Z,2.08
2022-08-19T12:18:00.570Z,1.65
2022-08-19T12:23:02.193Z,2.80
2022-08-19T12:28:04.761Z,2.22
2022-08-19T12:33:06.639Z,3.10
2022-08-19T12:38:08.170Z,2.05
2022-08-19T12:43:09.678Z,2.75
2022-08-19T12:48:33.799Z,1.83
2022-08-19T12:53:33.404Z,2.30
2022-08-19T12:58:36.042Z,2.05
2022-08-19T13:03:40.641Z,2.35
2022-08-19T13:08:42.720Z,2.75
2022-08-19T13:13:51.997Z,3.63
2022-08-19T13:18:53.907Z,2.22
2022-08-19T13:23:55.352Z,5.25
2022-08-19T13:29:15.695Z,4.25
2022-08-19T13:34:20.149Z,3.72
2022-08-19T13:39:23.877Z,2.83
2022-08-19T13:44:25.633Z,4.32
2022-08-19T13:49:31.485Z,3.50
2022-08-19T13:54:33.389Z,3.60
2022-08-19T13:59:34.881Z,2.60
2022-08-19T14:04:36.392Z,2.50
2022-08-19T14:09:37.901Z,3.63
2022-08-19T14:14:40.477Z,2.17
2022-08-19T14:19:43.237Z,2.05
2022-08-19T14:24:51.069Z,3.88
2022-08-19T14:29:53.390Z,3.08
2022-08-19T14:34:55.407Z,2.40
2022-08-19T14:39:57.858Z,2.92
2022-08-19T14:45:00.392Z,2.85
2022-08-19T14:50:05.140Z,3.60
2022-08-19T14:55:07.822Z,4.68
2022-08-19T15:00:13.975Z,3.45
2022-08-19T15:05:15.586Z,3.53
2022-08-19T15:10:17.247Z,5.88
2022-08-19T15:15:18.998Z,2.88
2022-08-19T15:20:23.140Z,4.07
2022-08-19T15:25:24.645Z,5.32
2022-08-19T15:30:29.094Z,3.42
2022-08-19T15:35:31.322Z,3.95
2022-08-19T15:40:32.850Z,3.85
2022-08-19T15:45:34.505Z,3.03
2022-08-19T15:50:36.127Z,4.30
2022-08-19T15:55:44.521Z,5.30
2022-08-19T16:01:04.361Z,4.43
2022-08-19T16:06:26.217Z,4.28
2022-08-19T16:11:31.050Z,5.03
2022-08-19T16:16:35.048Z,4.38
2022-08-19T16:21:37.995Z,3.72
2022-08-19T16:26:43.310Z,6.53
2022-08-19T16:31:46.751Z,3.15
2022-08-19T16:36:48.343Z,2.65
2022-08-19T16:41:51.434Z,3.78
2022-08-19T16:46:59.181Z,8.07
2022-08-19T16:52:03.379Z,6.13
2022-08-19T16:57:08.876Z,4.45
2022-08-19T17:07:15.940Z,8.55
2022-08-19T17:12:17.482Z,3.38
2022-08-19T17:17:21.754Z,3.65
2022-08-19T17:22:26.898Z,4.75
2022-08-19T17:27:31.311Z,3.45
2022-08-19T17:32:35.489Z,5.93
2022-08-19T17:37:37.694Z,6.82
2022-08-19T17:42:39.999Z,5.38
2022-08-19T17:47:41.653Z,5.05
2022-08-19T17:52:44.108Z,5.65
2022-08-19T17:57:46.885Z,6.38
2022-08-19T18:02:51.543Z,4.25
2022-08-19T18:07:54.250Z,3.90
2022-08-19T18:12:56.210Z,6.72
2022-08-19T18:17:58.322Z,5.82
2022-08-19T18:23:41.181Z,9.60
2022-08-19T18:28:23.731Z,10.70
2022-08-19T18:33:25.661Z,8.85
2022-08-19T18:38:46.002Z,8.77
2022-08-19T18:44:05.776Z,10.50
2022-08-19T18:49:09.368Z,7.10
2022-08-19T18:54:10.905Z,5.15
2022-08-19T18:59:14.131Z,8.10
2022-08-19T19:04:16.343Z,4.63
2022-08-19T19:09:21.101Z,7.82
2022-08-19T19:14:48.071Z,6.13
2022-08-19T19:19:50.500Z,7.43
2022-08-19T19:24:54.065Z,6.47
2022-08-19T19:29:57.275Z,8.00
2022-08-19T19:34:59.504Z,7.10
2022-08-19T19:40:01.071Z,9.35
2022-08-19T19:45:02.956Z,8.57
2022-08-19T19:50:14.445Z,10.93
2022-08-19T19:55:20.576Z,9.32
2022-08-19T20:00:22.395Z,11.10
2022-08-19T20:05:24.302Z,10.57
2022-08-19T20:10:26.696Z,12.18
2022-08-19T20:15:29.296Z,8.18
2022-08-19T20:26:09.700Z,11.38
2022-08-19T20:31:23.176Z,9.57
2022-08-19T20:36:29.460Z,10.05
2022-08-19T20:41:31.659Z,9.80
2022-08-19T20:46:34.449Z,11.50
2022-08-19T20:51:35.956Z,9.40
2022-08-19T20:56:37.477Z,8.93
2022-08-19T21:01:41.185Z,12.48
2022-08-19T21:06:45.473Z,8.48
2022-08-19T21:11:47.804Z,10.63
2022-08-19T21:16:50.347Z,8.38
2022-08-19T21:21:52.373Z,9.35
2022-08-19T21:26:53.935Z,8.98
2022-08-19T21:31:55.504Z,9.88
2022-08-19T21:37:01.442Z,8.98
2022-08-19T21:42:03.348Z,9.63
2022-08-19T21:47:05.488Z,11.30
2022-08-19T21:52:10.621Z,7.82
2022-08-19T21:57:12.139Z,8.10
2022-08-19T22:02:22.027Z,7.63
2022-08-19T22:07:26.773Z,8.23
2022-08-19T22:12:32.397Z,8.32
2022-08-19T22:17:33.938Z,9.07
2022-08-19T22:22:35.659Z,10.55
2022-08-19T22:27:37.472Z,7.97
2022-08-19T22:32:39.018Z,8.43
2022-08-19T22:37:41.728Z,7.50
2022-08-19T22:42:45.069Z,12.25
2022-08-19T22:47:46.574Z,7.45
2022-08-19T22:52:51.994Z,9.73
2022-08-19T22:57:54.630Z,13.45
2022-08-19T23:02:57.418Z,10.82
2022-08-19T23:07:59.114Z,13.13
2022-08-19T23:13:00.707Z,13.32
2022-08-19T23:18:04.307Z,15.65
2022-08-19T23:23:10.443Z,13.48
2022-08-19T23:34:06.331Z,14.23
2022-08-19T23:39:09.654Z,16.80
2022-08-19T23:44:19.561Z,14.25
2022-08-19T23:49:21.270Z,17.00
2022-08-19T23:54:43.077Z,14.98
2022-08-19T23:59:46.004Z,10.88
